sensor_id;sensor_type;location;lat;lon;timestamp;P1;durP1;ratioP1;P2;durP2;ratioP2
76065;SDS011;64763;48.928;8.474;2023-12-04T00:01:42;10.38;;;4.53;;
76065;SDS011;64763;48.928;8.474;2023-12-04T00:04:09;9.13;;;4.60;;
76065;SDS011;64763;48.928;8.474;2023-12-04T00:06:35;9.38;;;5.28;;
76065;SDS011;64763;48.928;8.474;2023-12-04T00:09:00;11.95;;;5.13;;
76065;SDS011;64763;48.928;8.474;2023-12-04T00:11:25;11.13;;;5.07;;
76065;SDS011;64763;48.928;8.474;2023-12-04T00:13:51;13.60;;;6.13;;
76065;SDS011;64763;48.928;8.474;2023-12-04T00:16:17;9.88;;;5.82;;
76065;SDS011;64763;48.928;8.474;2023-12-04T00:18:43;11.15;;;5.50;;
76065;SDS011;64763;48.928;8.474;2023-12-04T00:21:08;8.95;;;5.25;;
76065;SDS011;64763;48.928;8.474;2023-12-04T00:23:34;8.63;;;5.05;;
76065;SDS011;64763;48.928;8.474;2023-12-04T00:25:59;11.70;;;6.22;;
76065;SDS011;64763;48.928;8.474;2023-12-04T00:28:24;11.02;;;5.80;;
76065;SDS011;64763;48.928;8.474;2023-12-04T00:30:50;10.18;;;5.93;;
76065;SDS011;64763;48.928;8.474;2023-12-04T00:33:15;10.35;;;5.07;;
76065;SDS011;64763;48.928;8.474;2023-12-04T00:35:40;8.30;;;4.82;;
76065;SDS011;64763;48.928;8.474;2023-12-04T00:38:06;10.80;;;5.60;;
76065;SDS011;64763;48.928;8.474;2023-12-04T00:40:31;10.52;;;5.13;;
76065;SDS011;64763;48.928;8.474;2023-12-04T00:42:56;12.70;;;5.47;;
76065;SDS011;64763;48.928;8.474;2023-12-04T00:45:22;11.30;;;5.03;;
76065;SDS011;64763;48.928;8.474;2023-12-04T00:47:47;9.30;;;4.75;;
76065;SDS011;64763;48.928;8.474;2023-12-04T00:50:12;9.32;;;4.07;;
76065;SDS011;64763;48.928;8.474;2023-12-04T00:52:38;8.70;;;4.60;;
76065;SDS011;64763;48.928;8.474;2023-12-04T00:55:03;9.50;;;4.57;;
76065;SDS011;64763;48.928;8.474;2023-12-04T00:57:28;8.40;;;3.53;;
76065;SDS011;64763;48.928;8.474;2023-12-04T00:59:54;6.45;;;3.85;;
76065;SDS011;64763;48.928;8.474;2023-12-04T01:02:19;7.68;;;4.75;;
76065;SDS011;64763;48.928;8.474;2023-12-04T01:04:44;8.95;;;4.18;;
76065;SDS011;64763;48.928;8.474;2023-12-04T01:07:10;9.35;;;4.68;;
76065;SDS011;64763;48.928;8.474;2023-12-04T01:09:35;8.43;;;4.13;;
76065;SDS011;64763;48.928;8.474;2023-12-04T01:12:01;8.88;;;5.18;;
76065;SDS011;64763;48.928;8.474;2023-12-04T01:14:26;7.18;;;3.95;;
76065;SDS011;64763;48.928;8.474;2023-12-04T01:16:52;11.20;;;5.10;;
76065;SDS011;64763;48.928;8.474;2023-12-04T01:19:17;9.77;;;5.03;;
76065;SDS011;64763;48.928;8.474;2023-12-04T01:21:43;9.00;;;4.40;;
76065;SDS011;64763;48.928;8.474;2023-12-04T01:24:08;13.63;;;5.15;;
76065;SDS011;64763;48.928;8.474;2023-12-04T01:26:36;11.82;;;5.28;;
76065;SDS011;64763;48.928;8.474;2023-12-04T01:29:02;13.23;;;5.88;;
76065;SDS011;64763;48.928;8.474;2023-12-04T01:33:53;7.23;;;4.37;;
76065;SDS011;64763;48.928;8.474;2023-12-04T01:36:18;9.18;;;4.18;;
76065;SDS011;64763;48.928;8.474;2023-12-04T01:38:44;11.75;;;4.80;;
76065;SDS011;64763;48.928;8.474;2023-12-04T01:41:09;11.95;;;5.72;;
76065;SDS011;64763;48.928;8.474;2023-12-04T01:43:34;12.30;;;5.20;;
76065;SDS011;64763;48.928;8.474;2023-12-04T01:46:00;9.30;;;4.38;;
76065;SDS011;64763;48.928;8.474;2023-12-04T01:50:51;10.13;;;4.73;;
76065;SDS011;64763;48.928;8.474;2023-12-04T01:53:17;11.98;;;6.47;;
76065;SDS011;64763;48.928;8.474;2023-12-04T01:55:42;10.45;;;5.63;;
76065;SDS011;64763;48.928;8.474;2023-12-04T01:58:08;10.85;;;5.10;;
76065;SDS011;64763;48.928;8.474;2023-12-04T02:00:34;9.75;;;5.60;;
76065;SDS011;64763;48.928;8.474;2023-12-04T02:02:59;12.73;;;5.28;;
76065;SDS011;64763;48.928;8.474;2023-12-04T02:05:26;12.27;;;4.88;;
76065;SDS011;64763;48.928;8.474;2023-12-04T02:07:52;9.85;;;4.82;;
76065;SDS011;64763;48.928;8.474;2023-12-04T02:10:18;12.15;;;5.05;;
76065;SDS011;64763;48.928;8.474;2023-12-04T02:12:43;7.60;;;3.83;;
76065;SDS011;64763;48.928;8.474;2023-12-04T02:15:08;7.13;;;3.88;;
76065;SDS011;64763;48.928;8.474;2023-12-04T02:17:34;7.20;;;3.22;;
76065;SDS011;64763;48.928;8.474;2023-12-04T02:19:59;10.27;;;3.90;;
76065;SDS011;64763;48.928;8.474;2023-12-04T02:22:25;9.45;;;3.67;;
76065;SDS011;64763;48.928;8.474;2023-12-04T02:24:50;6.38;;;3.40;;
76065;SDS011;64763;48.928;8.474;2023-12-04T02:27:17;7.32;;;4.20;;
76065;SDS011;64763;48.928;8.474;2023-12-04T02:29:47;5.32;;;3.55;;
76065;SDS011;64763;48.928;8.474;2023-12-04T02:32:15;6.65;;;3.60;;
76065;SDS011;64763;48.928;8.474;2023-12-04T02:34:42;8.98;;;3.65;;
76065;SDS011;64763;48.928;8.474;2023-12-04T02:37:09;5.85;;;3.50;;
76065;SDS011;64763;48.928;8.474;2023-12-04T02:39:34;6.13;;;3.30;;
76065;SDS011;64763;48.928;8.474;2023-12-04T02:42:01;8.00;;;3.33;;
76065;SDS011;64763;48.928;8.474;2023-12-04T02:44:27;4.82;;;2.60;;
76065;SDS011;64763;48.928;8.474;2023-12-04T02:46:52;4.65;;;2.90;;
76065;SDS011;64763;48.928;8.474;2023-12-04T02:49:17;5.15;;;3.03;;
76065;SDS011;64763;48.928;8.474;2023-12-04T02:51:43;6.53;;;3.53;;
76065;SDS011;64763;48.928;8.474;2023-12-04T02:54:08;6.53;;;3.53;;
76065;SDS011;64763;48.928;8.474;2023-12-04T02:56:33;6.95;;;3.15;;
76065;SDS011;64763;48.928;8.474;2023-12-04T02:58:59;4.57;;;3.17;;
76065;SDS011;64763;48.928;8.474;2023-12-04T03:01:24;4.63;;;3.05;;
76065;SDS011;64763;48.928;8.474;2023-12-04T03:03:49;5.40;;;3.28;;
76065;SDS011;64763;48.928;8.474;2023-12-04T03:06:18;6.60;;;2.80;;
76065;SDS011;64763;48.928;8.474;2023-12-04T03:08:43;4.78;;;3.45;;
76065;SDS011;64763;48.928;8.474;2023-12-04T03:11:08;4.10;;;2.55;;
76065;SDS011;64763;48.928;8.474;2023-12-04T03:13:34;4.53;;;2.40;;
76065;SDS011;64763;48.928;8.474;2023-12-04T03:15:59;6.47;;;2.70;;
76065;SDS011;64763;48.928;8.474;2023-12-04T03:18:25;4.82;;;2.88;;
76065;SDS011;64763;48.928;8.474;2023-12-04T03:20:51;4.93;;;2.72;;
76065;SDS011;64763;48.928;8.474;2023-12-04T03:23:16;4.43;;;2.50;;
76065;SDS011;64763;48.928;8.474;2023-12-04T03:25:42;5.65;;;3.22;;
76065;SDS011;64763;48.928;8.474;2023-12-04T03:28:07;5.82;;;2.70;;
76065;SDS011;64763;48.928;8.474;2023-12-04T03:30:32;4.55;;;2.38;;
76065;SDS011;64763;48.928;8.474;2023-12-04T03:32:58;5.35;;;2.80;;
76065;SDS011;64763;48.928;8.474;2023-12-04T03:35:23;6.95;;;2.92;;
76065;SDS011;64763;48.928;8.474;2023-12-04T03:37:48;5.05;;;2.65;;
76065;SDS011;64763;48.928;8.474;2023-12-04T03:40:17;3.60;;;2.13;;
76065;SDS011;64763;48.928;8.474;2023-12-04T03:42:42;5.38;;;2.70;;
76065;SDS011;64763;48.928;8.474;2023-12-04T03:45:08;4.38;;;2.70;;
76065;SDS011;64763;48.928;8.474;2023-12-04T03:47:33;7.75;;;3.10;;
76065;SDS011;64763;48.928;8.474;2023-12-04T03:49:59;6.40;;;3.15;;
76065;SDS011;64763;48.928;8.474;2023-12-04T03:52:24;4.63;;;2.78;;
76065;SDS011;64763;48.928;8.474;2023-12-04T03:54:49;4.97;;;2.72;;
76065;SDS011;64763;48.928;8.474;2023-12-04T03:57:15;4.07;;;2.50;;
76065;SDS011;64763;48.928;8.474;2023-12-04T03:59:40;5.32;;;3.00;;
76065;SDS011;64763;48.928;8.474;2023-12-04T04:02:05;7.75;;;2.90;;
76065;SDS011;64763;48.928;8.474;2023-12-04T04:04:31;5.65;;;2.53;;
76065;SDS011;64763;48.928;8.474;2023-12-04T04:06:56;4.43;;;2.85;;
76065;SDS011;64763;48.928;8.474;2023-12-04T04:09:22;3.47;;;2.08;;
76065;SDS011;64763;48.928;8.474;2023-12-04T04:11:47;4.75;;;2.80;;
76065;SDS011;64763;48.928;8.474;2023-12-04T04:14:13;7.05;;;3.33;;
76065;SDS011;64763;48.928;8.474;2023-12-04T04:16:38;6.53;;;2.45;;
76065;SDS011;64763;48.928;8.474;2023-12-04T04:19:03;5.50;;;2.33;;
76065;SDS011;64763;48.928;8.474;2023-12-04T04:21:29;4.88;;;2.60;;
76065;SDS011;64763;48.928;8.474;2023-12-04T04:23:54;5.05;;;2.72;;
76065;SDS011;64763;48.928;8.474;2023-12-04T04:26:19;5.55;;;3.03;;
76065;SDS011;64763;48.928;8.474;2023-12-04T04:28:45;4.72;;;2.50;;
76065;SDS011;64763;48.928;8.474;2023-12-04T04:31:10;6.82;;;3.13;;
76065;SDS011;64763;48.928;8.474;2023-12-04T04:33:35;5.88;;;2.97;;
76065;SDS011;64763;48.928;8.474;2023-12-04T04:36:01;5.20;;;3.45;;
76065;SDS011;64763;48.928;8.474;2023-12-04T04:38:27;5.22;;;2.50;;
76065;SDS011;64763;48.928;8.474;2023-12-04T04:40:52;4.50;;;2.45;;
76065;SDS011;64763;48.928;8.474;2023-12-04T04:43:18;7.28;;;2.80;;
76065;SDS011;64763;48.928;8.474;2023-12-04T04:45:44;7.18;;;3.40;;
76065;SDS011;64763;48.928;8.474;2023-12-04T04:48:10;6.20;;;3.20;;
76065;SDS011;64763;48.928;8.474;2023-12-04T04:50:35;7.68;;;4.03;;
76065;SDS011;64763;48.928;8.474;2023-12-04T04:53:00;5.55;;;3.42;;
76065;SDS011;64763;48.928;8.474;2023-12-04T04:55:25;7.68;;;4.13;;
76065;SDS011;64763;48.928;8.474;2023-12-04T04:57:51;8.70;;;4.72;;
76065;SDS011;64763;48.928;8.474;2023-12-04T05:00:17;7.88;;;4.35;;
76065;SDS011;64763;48.928;8.474;2023-12-04T05:02:42;9.80;;;5.03;;
76065;SDS011;64763;48.928;8.474;2023-12-04T05:05:08;9.55;;;4.07;;
76065;SDS011;64763;48.928;8.474;2023-12-04T05:09:58;8.50;;;3.80;;
76065;SDS011;64763;48.928;8.474;2023-12-04T05:12:24;7.68;;;4.68;;
76065;SDS011;64763;48.928;8.474;2023-12-04T05:14:49;7.85;;;4.63;;
76065;SDS011;64763;48.928;8.474;2023-12-04T05:17:15;10.80;;;4.55;;
76065;SDS011;64763;48.928;8.474;2023-12-04T05:19:40;9.23;;;4.90;;
76065;SDS011;64763;48.928;8.474;2023-12-04T05:22:05;8.95;;;5.05;;
76065;SDS011;64763;48.928;8.474;2023-12-04T05:24:31;8.70;;;5.45;;
76065;SDS011;64763;48.928;8.474;2023-12-04T05:26:57;8.85;;;3.65;;
76065;SDS011;64763;48.928;8.474;2023-12-04T05:29:23;8.82;;;4.18;;
76065;SDS011;64763;48.928;8.474;2023-12-04T05:31:48;8.80;;;4.60;;
76065;SDS011;64763;48.928;8.474;2023-12-04T05:34:14;7.40;;;4.13;;
76065;SDS011;64763;48.928;8.474;2023-12-04T05:36:39;9.40;;;4.93;;
76065;SDS011;64763;48.928;8.474;2023-12-04T05:39:04;9.48;;;5.28;;
76065;SDS011;64763;48.928;8.474;2023-12-04T05:41:30;9.05;;;5.00;;
76065;SDS011;64763;48.928;8.474;2023-12-04T05:43:56;11.50;;;5.20;;
76065;SDS011;64763;48.928;8.474;2023-12-04T05:46:21;9.05;;;5.07;;
76065;SDS011;64763;48.928;8.474;2023-12-04T05:48:47;11.68;;;6.43;;
76065;SDS011;64763;48.928;8.474;2023-12-04T05:51:13;9.65;;;5.47;;
76065;SDS011;64763;48.928;8.474;2023-12-04T05:53:39;10.77;;;5.75;;
76065;SDS011;64763;48.928;8.474;2023-12-04T05:56:05;10.70;;;5.65;;
76065;SDS011;64763;48.928;8.474;2023-12-04T05:58:31;12.00;;;6.90;;
76065;SDS011;64763;48.928;8.474;2023-12-04T06:00:56;15.80;;;6.70;;
76065;SDS011;64763;48.928;8.474;2023-12-04T06:03:24;14.50;;;6.68;;
76065;SDS011;64763;48.928;8.474;2023-12-04T06:05:49;13.55;;;6.78;;
76065;SDS011;64763;48.928;8.474;2023-12-04T06:08:14;10.70;;;4.70;;
76065;SDS011;64763;48.928;8.474;2023-12-04T06:10:43;7.70;;;5.00;;
76065;SDS011;64763;48.928;8.474;2023-12-04T06:13:08;10.63;;;4.70;;
76065;SDS011;64763;48.928;8.474;2023-12-04T06:15:33;11.30;;;5.68;;
76065;SDS011;64763;48.928;8.474;2023-12-04T06:17:59;9.82;;;5.68;;
76065;SDS011;64763;48.928;8.474;2023-12-04T06:20:24;10.00;;;5.63;;
76065;SDS011;64763;48.928;8.474;2023-12-04T06:22:49;9.60;;;5.65;;
76065;SDS011;64763;48.928;8.474;2023-12-04T06:25:15;11.00;;;5.78;;
76065;SDS011;64763;48.928;8.474;2023-12-04T06:27:41;10.80;;;5.22;;
76065;SDS011;64763;48.928;8.474;2023-12-04T06:30:06;9.40;;;5.43;;
76065;SDS011;64763;48.928;8.474;2023-12-04T06:32:32;9.35;;;5.00;;
76065;SDS011;64763;48.928;8.474;2023-12-04T06:35:00;7.78;;;4.15;;
76065;SDS011;64763;48.928;8.474;2023-12-04T06:37:29;11.07;;;5.50;;
76065;SDS011;64763;48.928;8.474;2023-12-04T06:39:54;7.82;;;4.35;;
76065;SDS011;64763;48.928;8.474;2023-12-04T06:44:46;6.15;;;3.35;;
76065;SDS011;64763;48.928;8.474;2023-12-04T06:47:11;9.02;;;4.78;;
76065;SDS011;64763;48.928;8.474;2023-12-04T06:49:37;10.15;;;4.93;;
76065;SDS011;64763;48.928;8.474;2023-12-04T06:52:03;7.53;;;4.28;;
76065;SDS011;64763;48.928;8.474;2023-12-04T06:56:54;7.88;;;3.38;;
76065;SDS011;64763;48.928;8.474;2023-12-04T06:59:19;11.02;;;4.47;;
76065;SDS011;64763;48.928;8.474;2023-12-04T07:01:45;6.28;;;3.50;;
76065;SDS011;64763;48.928;8.474;2023-12-04T07:04:11;10.57;;;4.35;;
76065;SDS011;64763;48.928;8.474;2023-12-04T07:06:37;8.23;;;4.85;;
76065;SDS011;64763;48.928;8.474;2023-12-04T07:09:02;8.65;;;4.47;;
76065;SDS011;64763;48.928;8.474;2023-12-04T07:11:28;11.93;;;5.38;;
76065;SDS011;64763;48.928;8.474;2023-12-04T07:13:53;9.77;;;5.25;;
76065;SDS011;64763;48.928;8.474;2023-12-04T07:16:19;6.43;;;4.47;;
76065;SDS011;64763;48.928;8.474;2023-12-04T07:18:44;9.23;;;5.35;;
76065;SDS011;64763;48.928;8.474;2023-12-04T07:21:09;7.53;;;4.13;;
76065;SDS011;64763;48.928;8.474;2023-12-04T07:26:01;6.07;;;4.00;;
76065;SDS011;64763;48.928;8.474;2023-12-04T07:28:26;8.30;;;4.25;;
76065;SDS011;64763;48.928;8.474;2023-12-04T07:30:52;9.05;;;4.47;;
76065;SDS011;64763;48.928;8.474;2023-12-04T07:33:18;8.82;;;4.75;;
76065;SDS011;64763;48.928;8.474;2023-12-04T07:35:44;9.98;;;4.03;;
76065;SDS011;64763;48.928;8.474;2023-12-04T07:38:09;9.82;;;4.95;;
76065;SDS011;64763;48.928;8.474;2023-12-04T07:40:34;8.43;;;4.80;;
76065;SDS011;64763;48.928;8.474;2023-12-04T07:43:00;11.95;;;5.05;;
76065;SDS011;64763;48.928;8.474;2023-12-04T07:45:25;11.27;;;5.63;;
76065;SDS011;64763;48.928;8.474;2023-12-04T07:47:52;11.10;;;5.13;;
76065;SDS011;64763;48.928;8.474;2023-12-04T07:50:17;12.52;;;6.18;;
76065;SDS011;64763;48.928;8.474;2023-12-04T07:55:07;10.20;;;5.77;;
76065;SDS011;64763;48.928;8.474;2023-12-04T07:57:33;12.20;;;6.15;;
76065;SDS011;64763;48.928;8.474;2023-12-04T08:02:23;8.17;;;4.87;;
76065;SDS011;64763;48.928;8.474;2023-12-04T08:07:14;9.05;;;5.25;;
76065;SDS011;64763;48.928;8.474;2023-12-04T08:09:40;7.78;;;4.68;;
76065;SDS011;64763;48.928;8.474;2023-12-04T08:12:06;10.98;;;5.40;;
76065;SDS011;64763;48.928;8.474;2023-12-04T08:16:57;10.80;;;5.88;;
76065;SDS011;64763;48.928;8.474;2023-12-04T08:19:23;13.02;;;5.53;;
76065;SDS011;64763;48.928;8.474;2023-12-04T08:24:14;8.77;;;4.73;;
76065;SDS011;64763;48.928;8.474;2023-12-04T08:26:41;11.43;;;5.65;;
76065;SDS011;64763;48.928;8.474;2023-12-04T08:31:32;11.07;;;5.50;;
76065;SDS011;64763;48.928;8.474;2023-12-04T08:36:23;9.50;;;5.50;;
76065;SDS011;64763;48.928;8.474;2023-12-04T08:41:13;11.17;;;5.30;;
76065;SDS011;64763;48.928;8.474;2023-12-04T08:46:04;12.80;;;5.97;;
76065;SDS011;64763;48.928;8.474;2023-12-04T08:50:54;12.13;;;6.53;;
76065;SDS011;64763;48.928;8.474;2023-12-04T08:55:45;11.43;;;6.30;;
76065;SDS011;64763;48.928;8.474;2023-12-04T09:00:37;11.77;;;5.37;;
76065;SDS011;64763;48.928;8.474;2023-12-04T09:05:28;12.23;;;5.40;;
76065;SDS011;64763;48.928;8.474;2023-12-04T09:10:18;11.83;;;5.57;;
76065;SDS011;64763;48.928;8.474;2023-12-04T09:15:10;10.45;;;5.50;;
76065;SDS011;64763;48.928;8.474;2023-12-04T09:17:36;17.83;;;8.10;;
76065;SDS011;64763;48.928;8.474;2023-12-04T09:22:27;14.15;;;7.47;;
76065;SDS011;64763;48.928;8.474;2023-12-04T09:27:18;10.90;;;5.50;;
76065;SDS011;64763;48.928;8.474;2023-12-04T09:29:43;11.30;;;6.68;;
76065;SDS011;64763;48.928;8.474;2023-12-04T09:34:35;11.27;;;5.32;;
76065;SDS011;64763;48.928;8.474;2023-12-04T09:39:25;9.97;;;5.67;;
76065;SDS011;64763;48.928;8.474;2023-12-04T09:41:51;9.35;;;5.35;;
76065;SDS011;64763;48.928;8.474;2023-12-04T09:46:42;10.00;;;5.67;;
76065;SDS011;64763;48.928;8.474;2023-12-04T09:51:33;9.37;;;5.17;;
76065;SDS011;64763;48.928;8.474;2023-12-04T09:54:02;9.23;;;4.65;;
76065;SDS011;64763;48.928;8.474;2023-12-04T09:56:31;10.38;;;4.55;;
76065;SDS011;64763;48.928;8.474;2023-12-04T09:58:58;7.57;;;4.03;;
76065;SDS011;64763;48.928;8.474;2023-12-04T10:01:25;9.00;;;3.65;;
76065;SDS011;64763;48.928;8.474;2023-12-04T10:03:51;7.88;;;4.72;;
76065;SDS011;64763;48.928;8.474;2023-12-04T10:06:16;9.23;;;4.38;;
76065;SDS011;64763;48.928;8.474;2023-12-04T10:08:42;8.57;;;4.90;;
76065;SDS011;64763;48.928;8.474;2023-12-04T10:11:09;11.50;;;5.35;;
76065;SDS011;64763;48.928;8.474;2023-12-04T10:13:35;10.27;;;4.95;;
76065;SDS011;64763;48.928;8.474;2023-12-04T10:16:00;8.63;;;5.07;;
76065;SDS011;64763;48.928;8.474;2023-12-04T10:20:52;8.38;;;4.10;;
76065;SDS011;64763;48.928;8.474;2023-12-04T10:23:22;8.20;;;5.07;;
76065;SDS011;64763;48.928;8.474;2023-12-04T10:25:50;9.38;;;4.85;;
76065;SDS011;64763;48.928;8.474;2023-12-04T10:28:16;9.18;;;5.38;;
76065;SDS011;64763;48.928;8.474;2023-12-04T10:33:07;7.53;;;4.22;;
76065;SDS011;64763;48.928;8.474;2023-12-04T10:35:33;9.95;;;5.15;;
76065;SDS011;64763;48.928;8.474;2023-12-04T10:38:04;9.95;;;5.70;;
76065;SDS011;64763;48.928;8.474;2023-12-04T10:40:30;10.75;;;5.88;;
76065;SDS011;64763;48.928;8.474;2023-12-04T10:45:46;11.68;;;5.78;;
76065;SDS011;64763;48.928;8.474;2023-12-04T10:48:12;14.63;;;5.75;;
76065;SDS011;64763;48.928;8.474;2023-12-04T10:50:42;16.10;;;6.75;;
76065;SDS011;64763;48.928;8.474;2023-12-04T10:53:12;10.15;;;5.25;;
76065;SDS011;64763;48.928;8.474;2023-12-04T10:55:39;12.02;;;6.80;;
76065;SDS011;64763;48.928;8.474;2023-12-04T10:58:08;13.18;;;6.13;;
76065;SDS011;64763;48.928;8.474;2023-12-04T11:00:36;10.30;;;5.40;;
76065;SDS011;64763;48.928;8.474;2023-12-04T11:03:05;8.55;;;5.15;;
76065;SDS011;64763;48.928;8.474;2023-12-04T11:05:33;9.50;;;5.80;;
76065;SDS011;64763;48.928;8.474;2023-12-04T11:08:02;9.68;;;5.32;;
76065;SDS011;64763;48.928;8.474;2023-12-04T11:10:30;8.23;;;5.28;;
76065;SDS011;64763;48.928;8.474;2023-12-04T11:13:05;9.75;;;5.05;;
76065;SDS011;64763;48.928;8.474;2023-12-04T11:15:35;13.35;;;6.65;;
76065;SDS011;64763;48.928;8.474;2023-12-04T11:18:05;8.93;;;4.93;;
76065;SDS011;64763;48.928;8.474;2023-12-04T11:20:33;10.05;;;5.20;;
76065;SDS011;64763;48.928;8.474;2023-12-04T11:23:02;10.80;;;5.60;;
76065;SDS011;64763;48.928;8.474;2023-12-04T11:25:28;11.48;;;6.05;;
76065;SDS011;64763;48.928;8.474;2023-12-04T11:27:54;10.10;;;5.07;;
76065;SDS011;64763;48.928;8.474;2023-12-04T11:30:20;9.57;;;5.60;;
76065;SDS011;64763;48.928;8.474;2023-12-04T11:32:46;11.23;;;5.90;;
76065;SDS011;64763;48.928;8.474;2023-12-04T11:35:17;20.80;;;11.25;;
76065;SDS011;64763;48.928;8.474;2023-12-04T11:37:44;20.20;;;9.85;;
76065;SDS011;64763;48.928;8.474;2023-12-04T11:40:14;12.77;;;6.28;;
76065;SDS011;64763;48.928;8.474;2023-12-04T11:42:40;11.52;;;5.93;;
76065;SDS011;64763;48.928;8.474;2023-12-04T11:45:06;7.75;;;5.20;;
76065;SDS011;64763;48.928;8.474;2023-12-04T11:50:17;106.93;;;38.08;;
76065;SDS011;64763;48.928;8.474;2023-12-04T11:52:44;25.10;;;11.20;;
76065;SDS011;64763;48.928;8.474;2023-12-04T11:55:10;10.82;;;6.47;;
76065;SDS011;64763;48.928;8.474;2023-12-04T11:57:36;11.02;;;5.50;;
76065;SDS011;64763;48.928;8.474;2023-12-04T12:03:01;12.27;;;6.90;;
76065;SDS011;64763;48.928;8.474;2023-12-04T12:05:28;13.20;;;6.68;;
76065;SDS011;64763;48.928;8.474;2023-12-04T12:07:54;12.55;;;7.05;;
76065;SDS011;64763;48.928;8.474;2023-12-04T12:10:19;13.00;;;6.72;;
76065;SDS011;64763;48.928;8.474;2023-12-04T12:12:45;12.30;;;6.10;;
76065;SDS011;64763;48.928;8.474;2023-12-04T12:15:12;10.77;;;6.00;;
76065;SDS011;64763;48.928;8.474;2023-12-04T12:17:38;14.95;;;6.65;;
76065;SDS011;64763;48.928;8.474;2023-12-04T12:20:05;11.95;;;6.82;;
76065;SDS011;64763;48.928;8.474;2023-12-04T12:22:32;13.05;;;6.60;;
76065;SDS011;64763;48.928;8.474;2023-12-04T12:24:59;13.90;;;7.53;;
76065;SDS011;64763;48.928;8.474;2023-12-04T12:27:25;16.48;;;8.48;;
76065;SDS011;64763;48.928;8.474;2023-12-04T12:29:50;15.88;;;8.43;;
76065;SDS011;64763;48.928;8.474;2023-12-04T12:32:15;17.25;;;8.48;;
76065;SDS011;64763;48.928;8.474;2023-12-04T12:34:41;15.43;;;8.50;;
76065;SDS011;64763;48.928;8.474;2023-12-04T12:37:07;16.73;;;8.57;;
76065;SDS011;64763;48.928;8.474;2023-12-04T12:39:33;12.98;;;7.40;;
76065;SDS011;64763;48.928;8.474;2023-12-04T12:42:00;14.68;;;7.68;;
76065;SDS011;64763;48.928;8.474;2023-12-04T12:44:26;16.02;;;8.40;;
76065;SDS011;64763;48.928;8.474;2023-12-04T12:46:52;10.82;;;6.53;;
76065;SDS011;64763;48.928;8.474;2023-12-04T12:49:17;37.33;;;15.82;;
76065;SDS011;64763;48.928;8.474;2023-12-04T12:51:45;26.33;;;13.73;;
76065;SDS011;64763;48.928;8.474;2023-12-04T12:54:10;17.67;;;8.23;;
76065;SDS011;64763;48.928;8.474;2023-12-04T12:56:36;19.02;;;9.48;;
76065;SDS011;64763;48.928;8.474;2023-12-04T12:59:01;17.02;;;8.55;;
76065;SDS011;64763;48.928;8.474;2023-12-04T13:01:30;18.35;;;8.00;;
76065;SDS011;64763;48.928;8.474;2023-12-04T13:03:56;11.10;;;7.20;;
76065;SDS011;64763;48.928;8.474;2023-12-04T13:06:22;13.02;;;7.97;;
76065;SDS011;64763;48.928;8.474;2023-12-04T13:08:47;14.70;;;8.40;;
76065;SDS011;64763;48.928;8.474;2023-12-04T13:11:13;13.15;;;7.40;;
76065;SDS011;64763;48.928;8.474;2023-12-04T13:13:38;15.90;;;8.68;;
76065;SDS011;64763;48.928;8.474;2023-12-04T13:16:03;21.13;;;10.45;;
76065;SDS011;64763;48.928;8.474;2023-12-04T13:18:29;20.35;;;10.50;;
76065;SDS011;64763;48.928;8.474;2023-12-04T13:20:59;15.35;;;7.65;;
76065;SDS011;64763;48.928;8.474;2023-12-04T13:23:24;14.40;;;8.45;;
76065;SDS011;64763;48.928;8.474;2023-12-04T13:25:50;18.45;;;10.05;;
76065;SDS011;64763;48.928;8.474;2023-12-04T13:28:15;20.63;;;9.27;;
76065;SDS011;64763;48.928;8.474;2023-12-04T13:30:40;19.50;;;8.35;;
76065;SDS011;64763;48.928;8.474;2023-12-04T13:33:06;15.68;;;8.10;;
76065;SDS011;64763;48.928;8.474;2023-12-04T13:35:32;16.73;;;8.88;;
76065;SDS011;64763;48.928;8.474;2023-12-04T13:37:57;13.65;;;8.02;;
76065;SDS011;64763;48.928;8.474;2023-12-04T13:40:24;18.52;;;10.13;;
76065;SDS011;64763;48.928;8.474;2023-12-04T13:42:53;17.23;;;9.02;;
76065;SDS011;64763;48.928;8.474;2023-12-04T13:45:37;18.80;;;9.50;;
76065;SDS011;64763;48.928;8.474;2023-12-04T13:48:03;17.90;;;7.80;;
76065;SDS011;64763;48.928;8.474;2023-12-04T13:50:28;14.63;;;7.93;;
76065;SDS011;64763;48.928;8.474;2023-12-04T13:52:54;23.98;;;8.35;;
76065;SDS011;64763;48.928;8.474;2023-12-04T13:55:25;14.55;;;8.80;;
76065;SDS011;64763;48.928;8.474;2023-12-04T13:58:10;22.02;;;8.10;;
76065;SDS011;64763;48.928;8.474;2023-12-04T14:00:56;16.42;;;7.95;;
76065;SDS011;64763;48.928;8.474;2023-12-04T14:03:21;15.15;;;7.70;;
76065;SDS011;64763;48.928;8.474;2023-12-04T14:05:49;14.20;;;7.90;;
76065;SDS011;64763;48.928;8.474;2023-12-04T14:08:15;16.75;;;8.30;;
76065;SDS011;64763;48.928;8.474;2023-12-04T14:10:41;11.73;;;7.53;;
76065;SDS011;64763;48.928;8.474;2023-12-04T14:13:06;16.45;;;8.05;;
76065;SDS011;64763;48.928;8.474;2023-12-04T14:15:31;16.35;;;7.97;;
76065;SDS011;64763;48.928;8.474;2023-12-04T14:17:57;18.60;;;9.07;;
76065;SDS011;64763;48.928;8.474;2023-12-04T14:20:22;12.40;;;8.13;;
76065;SDS011;64763;48.928;8.474;2023-12-04T14:22:51;14.63;;;8.05;;
76065;SDS011;64763;48.928;8.474;2023-12-04T14:25:16;14.77;;;8.73;;
76065;SDS011;64763;48.928;8.474;2023-12-04T14:27:42;17.70;;;8.73;;
76065;SDS011;64763;48.928;8.474;2023-12-04T14:30:13;17.77;;;9.60;;
76065;SDS011;64763;48.928;8.474;2023-12-04T14:32:42;14.45;;;8.88;;
76065;SDS011;64763;48.928;8.474;2023-12-04T14:35:07;14.43;;;8.27;;
76065;SDS011;64763;48.928;8.474;2023-12-04T14:37:36;15.30;;;8.63;;
76065;SDS011;64763;48.928;8.474;2023-12-04T14:40:01;11.93;;;7.93;;
76065;SDS011;64763;48.928;8.474;2023-12-04T14:42:29;17.40;;;8.20;;
76065;SDS011;64763;48.928;8.474;2023-12-04T14:44:57;16.92;;;8.95;;
76065;SDS011;64763;48.928;8.474;2023-12-04T14:47:23;17.63;;;9.30;;
76065;SDS011;64763;48.928;8.474;2023-12-04T14:49:48;19.10;;;9.20;;
76065;SDS011;64763;48.928;8.474;2023-12-04T14:52:18;15.98;;;9.20;;
76065;SDS011;64763;48.928;8.474;2023-12-04T14:54:46;19.75;;;9.55;;
76065;SDS011;64763;48.928;8.474;2023-12-04T14:57:32;16.42;;;9.30;;
76065;SDS011;64763;48.928;8.474;2023-12-04T15:00:07;19.20;;;9.75;;
76065;SDS011;64763;48.928;8.474;2023-12-04T15:02:51;17.33;;;9.95;;
76065;SDS011;64763;48.928;8.474;2023-12-04T15:05:35;19.38;;;9.75;;
76065;SDS011;64763;48.928;8.474;2023-12-04T15:08:19;17.95;;;9.95;;
76065;SDS011;64763;48.928;8.474;2023-12-04T15:11:03;20.15;;;10.73;;
76065;SDS011;64763;48.928;8.474;2023-12-04T15:13:47;19.50;;;10.35;;
76065;SDS011;64763;48.928;8.474;2023-12-04T15:16:21;21.63;;;11.25;;
76065;SDS011;64763;48.928;8.474;2023-12-04T15:18:56;23.92;;;11.18;;
76065;SDS011;64763;48.928;8.474;2023-12-04T15:21:22;22.83;;;12.43;;
76065;SDS011;64763;48.928;8.474;2023-12-04T15:23:50;29.25;;;15.00;;
76065;SDS011;64763;48.928;8.474;2023-12-04T15:26:16;26.17;;;15.85;;
76065;SDS011;64763;48.928;8.474;2023-12-04T15:28:45;21.85;;;13.63;;
76065;SDS011;64763;48.928;8.474;2023-12-04T15:31:10;27.30;;;14.30;;
76065;SDS011;64763;48.928;8.474;2023-12-04T15:33:36;25.15;;;14.30;;
76065;SDS011;64763;48.928;8.474;2023-12-04T15:36:02;22.40;;;13.40;;
76065;SDS011;64763;48.928;8.474;2023-12-04T15:38:28;24.60;;;14.25;;
76065;SDS011;64763;48.928;8.474;2023-12-04T15:40:54;28.38;;;14.82;;
76065;SDS011;64763;48.928;8.474;2023-12-04T15:43:20;34.88;;;17.65;;
76065;SDS011;64763;48.928;8.474;2023-12-04T15:45:45;32.60;;;17.58;;
76065;SDS011;64763;48.928;8.474;2023-12-04T15:48:10;32.53;;;16.65;;
76065;SDS011;64763;48.928;8.474;2023-12-04T15:50:36;35.03;;;18.70;;
76065;SDS011;64763;48.928;8.474;2023-12-04T15:53:02;35.75;;;18.30;;
76065;SDS011;64763;48.928;8.474;2023-12-04T15:55:27;44.00;;;22.05;;